Time;durP1;ratioP1;P1;durP2;ratioP2;P2;SDS_P1;SDS_P2;PMS_P1;PMS_P2;Temp;Humidity;BMP_temperature;BMP_pressure;BME280_temperature;BME280_humidity;BME280_pressure;Samples;Min_cycle;Max_cycle;Signal;HPM_P1;HPM_P2
2022/04/29 00:01:03;;;;;;;11.68;6.45;;;;;;;12.26;60.63;101586.99;1819391;79;21012;-79
2022/04/29 00:03:29;;;;;;;11.20;6.03;;;;;;;12.24;61.19;101590.16;1819483;77;21169;-79
2022/04/29 00:05:56;;;;;;;11.40;5.75;;;;;;;12.23;61.37;101588.00;1819419;79;20966;-79
2022/04/29 00:08:24;;;;;;;10.75;4.72;;;;;;;12.23;60.64;101586.69;1819386;77;20946;-79
2022/04/29 00:10:51;;;;;;;8.85;5.40;;;;;;;12.24;61.27;101594.95;1819422;79;20930;-79
2022/04/29 00:13:19;;;;;;;12.43;5.97;;;;;;;12.26;61.94;101593.56;1819325;77;20899;-80
2022/04/29 00:15:47;;;;;;;6.08;3.90;;;;;;;12.29;62.51;101595.19;1820730;79;21163;-76
2022/04/29 00:18:15;;;;;;;4.35;2.35;;;;;;;12.32;61.32;101598.99;1819753;79;20957;-79
2022/04/29 00:20:42;;;;;;;6.50;3.00;;;;;;;12.33;57.15;101598.89;1819304;79;20939;-79
2022/04/29 00:23:09;;;;;;;9.10;4.55;;;;;;;12.38;56.27;101599.97;1819848;78;20859;-79
2022/04/29 00:25:37;;;;;;;8.65;4.47;;;;;;;12.43;58.95;101597.97;1819542;79;21091;-80
2022/04/29 00:28:05;;;;;;;2.85;1.77;;;;;;;12.48;57.35;101598.56;1819413;77;22131;-79
2022/04/29 00:30:32;;;;;;;5.85;2.20;;;;;;;12.50;57.14;101595.39;1819500;79;21415;-78
2022/04/29 00:33:00;;;;;;;3.00;1.25;;;;;;;12.52;54.15;101601.43;1819416;79;20906;-79
2022/04/29 00:35:27;;;;;;;2.83;1.30;;;;;;;12.56;52.16;101602.98;1783460;77;20943;-78
2022/04/29 00:37:55;;;;;;;2.30;1.25;;;;;;;12.59;51.28;101596.22;1755170;81;20955;-79
2022/04/29 00:40:24;;;;;;;3.40;1.32;;;;;;;12.62;50.42;101597.36;1723569;82;21865;-78
2022/04/29 00:42:53;;;;;;;2.42;1.20;;;;;;;12.67;49.64;101601.06;1755134;80;20852;-80
2022/04/29 00:45:21;;;;;;;2.00;1.40;;;;;;;12.68;48.90;101596.20;1723571;83;20888;-79
2022/04/29 00:47:49;;;;;;;4.53;1.47;;;;;;;12.70;48.20;101590.39;1754758;80;20921;-79
2022/04/29 00:50:21;;;;;;;3.40;1.32;;;;;;;12.72;47.89;101591.17;1723451;83;21314;-79
2022/04/29 00:52:51;;;;;;;2.17;1.57;;;;;;;12.77;47.90;101594.86;1723676;82;21776;-79
2022/04/29 00:55:19;;;;;;;4.55;1.00;;;;;;;12.81;48.11;101596.41;1723168;82;20892;-79
2022/04/29 00:57:54;;;;;;;2.65;1.52;;;;;;;12.82;47.57;101599.41;1723275;82;20926;-79
2022/04/29 01:00:22;;;;;;;2.77;1.12;;;;;;;12.83;47.00;101592.75;1756592;81;20912;-79
2022/04/29 01:02:53;;;;;;;1.65;1.12;;;;;;;12.84;47.36;101597.07;1723191;82;21409;-78
2022/04/29 01:05:22;;;;;;;2.75;1.02;;;;;;;12.84;47.11;101591.81;1723267;82;21226;-80
2022/04/29 01:07:49;;;;;;;0.98;0.88;;;;;;;12.84;46.76;101592.28;1723581;82;20865;-79
2022/04/29 01:10:20;;;;;;;4.08;1.80;;;;;;;12.83;46.99;101599.34;1732409;79;20992;-78
2022/04/29 01:12:56;;;;;;;1.82;1.60;;;;;;;12.87;47.32;101603.95;1734049;79;21118;-79
2022/04/29 01:15:23;;;;;;;2.30;1.32;;;;;;;12.88;46.44;101604.34;1733039;79;20912;-80
2022/04/29 01:17:55;;;;;;;5.10;1.85;;;;;;;12.90;45.84;101600.33;1732968;81;20916;-80
2022/04/29 01:20:28;;;;;;;4.15;1.27;;;;;;;12.91;45.49;101604.17;1731825;81;21382;-79
2022/04/29 01:22:56;;;;;;;3.27;1.12;;;;;;;12.90;45.29;101605.59;1731095;82;20945;-79
2022/04/29 01:25:24;;;;;;;4.37;1.35;;;;;;;12.90;44.97;101601.64;1731210;82;20987;-80
2022/04/29 01:27:53;;;;;;;3.00;1.07;;;;;;;12.91;44.92;101602.86;1731300;81;20963;-80
2022/04/29 01:30:22;;;;;;;3.55;1.52;;;;;;;12.92;45.03;101604.57;1731250;81;21208;-79
2022/04/29 01:32:50;;;;;;;4.03;1.30;;;;;;;12.94;45.43;101604.47;1731229;81;20857;-80
2022/04/29 01:35:18;;;;;;;1.87;1.12;;;;;;;12.94;45.82;101598.77;1710418;82;20952;-79
2022/04/29 01:37:44;;;;;;;6.22;1.72;;;;;;;12.97;45.19;101604.32;1731216;81;21560;-79
2022/04/29 01:40:12;;;;;;;2.35;1.42;;;;;;;12.96;44.73;101603.48;1731409;81;20896;-78
2022/04/29 01:42:39;;;;;;;2.67;0.90;;;;;;;12.95;44.41;101595.66;1731723;81;21172;-76
2022/04/29 01:45:06;;;;;;;2.30;1.42;;;;;;;12.95;44.02;101595.66;1733022;81;20940;-79
2022/04/29 01:47:34;;;;;;;3.33;1.17;;;;;;;12.93;43.98;101590.46;1729347;82;20901;-79
2022/04/29 01:50:04;;;;;;;1.82;1.20;;;;;;;12.93;43.78;101590.94;1729955;82;20967;-79
2022/04/29 01:52:33;;;;;;;3.42;1.00;;;;;;;12.93;43.79;101592.25;1731344;81;21473;-79
2022/04/29 01:55:00;;;;;;;2.50;1.42;;;;;;;12.93;43.79;101593.09;1731280;81;21207;-79
2022/04/29 01:57:28;;;;;;;1.82;1.37;;;;;;;12.93;43.63;101597.52;1731240;81;20920;-79
2022/04/29 01:59:55;;;;;;;2.55;1.00;;;;;;;12.92;44.13;101595.83;1710632;83;20904;-80
2022/04/29 02:02:29;;;;;;;2.50;1.32;;;;;;;12.92;44.81;101592.73;1723776;81;20944;-79
2022/04/29 02:04:57;;;;;;;1.37;0.93;;;;;;;12.92;43.87;101594.52;1731375;81;20928;-79
2022/04/29 02:07:24;;;;;;;1.32;1.22;;;;;;;12.89;43.90;101596.82;1710676;83;21263;-78
2022/04/29 02:09:51;;;;;;;2.70;1.12;;;;;;;12.88;43.66;101591.66;1731203;82;20856;-80
2022/04/29 02:12:19;;;;;;;2.00;0.90;;;;;;;12.87;43.77;101589.47;1731189;82;20897;-79
2022/04/29 02:14:58;;;;;;;1.35;0.90;;;;;;;12.85;43.63;101592.20;1731131;81;20963;-80
2022/04/29 02:17:29;;;;;;;3.00;1.00;;;;;;;12.84;43.16;101597.07;1730893;82;21460;-78
2022/04/29 02:19:56;;;;;;;2.55;1.17;;;;;;;12.84;42.92;101590.97;1731226;82;21805;-79
2022/04/29 02:22:24;;;;;;;1.55;0.82;;;;;;;12.83;43.26;101596.70;1731119;81;21517;-80
2022/04/29 02:24:51;;;;;;;3.27;1.22;;;;;;;12.82;42.84;101600.72;1731365;81;20932;-79
2022/04/29 02:27:19;;;;;;;2.85;1.12;;;;;;;12.80;42.70;101597.32;1732671;82;20904;-76
2022/04/29 02:29:46;;;;;;;3.80;1.45;;;;;;;12.77;42.75;101598.81;1731858;81;21094;-78
2022/04/29 02:32:16;;;;;;;3.45;1.45;;;;;;;12.75;42.53;101600.20;1731277;81;21277;-79
2022/04/29 02:34:43;;;;;;;4.10;1.50;;;;;;;12.76;42.82;101603.67;1731314;82;20940;-79
2022/04/29 02:37:11;;;;;;;6.17;1.37;;;;;;;12.75;42.52;101602.83;1734261;81;20939;-80
2022/04/29 02:39:38;;;;;;;2.52;1.42;;;;;;;12.73;42.41;101602.06;1734647;81;20986;-79
2022/04/29 02:42:07;;;;;;;2.47;1.52;;;;;;;12.73;42.60;101603.85;1734566;81;20899;-79
2022/04/29 02:44:34;;;;;;;4.25;1.57;;;;;;;12.72;42.71;101606.12;1734639;81;21106;-79
2022/04/29 02:47:07;;;;;;;3.15;1.32;;;;;;;12.71;43.10;101605.71;1734442;82;20915;-79
2022/04/29 02:49:42;;;;;;;3.47;1.60;;;;;;;12.70;42.88;101616.72;1734805;81;20898;-80
2022/04/29 02:52:12;;;;;;;3.85;1.65;;;;;;;12.70;43.04;101616.72;1734551;81;20871;-80
2022/04/29 02:54:40;;;;;;;3.37;1.42;;;;;;;12.71;43.49;101622.82;1734565;81;20879;-79
2022/04/29 02:57:28;;;;;;;3.90;1.67;;;;;;;12.71;43.61;101620.19;1720090;81;21273;-78
2022/04/29 02:59:55;;;;;;;4.00;1.37;;;;;;;12.73;44.18;101624.44;1734547;81;20939;-79
2022/04/29 03:02:22;;;;;;;4.00;1.30;;;;;;;12.77;44.04;101631.72;1735196;82;20906;-79
2022/04/29 03:04:49;;;;;;;2.95;1.57;;;;;;;12.78;43.62;101632.09;1734656;81;20955;-80
2022/04/29 03:07:17;;;;;;;2.05;1.35;;;;;;;12.79;43.62;101637.28;1734507;82;20931;-79
2022/04/29 03:09:48;;;;;;;1.82;0.93;;;;;;;12.81;43.79;101636.73;1735225;81;21243;-79
2022/04/29 03:12:15;;;;;;;2.55;1.15;;;;;;;12.82;43.56;101637.58;1736415;81;20903;-80
2022/04/29 03:14:45;;;;;;;4.33;1.75;;;;;;;12.84;43.74;101631.77;1734666;81;21068;-79
2022/04/29 03:19:59;;;;;;;4.12;1.30;;;;;;;12.78;43.42;101638.23;1734638;81;20895;-79
2022/04/29 03:22:27;;;;;;;5.58;1.60;;;;;;;12.74;43.20;101638.44;1734553;82;21853;-80
2022/04/29 03:24:55;;;;;;;3.00;1.37;;;;;;;12.72;43.39;101645.59;1734440;81;20974;-81
2022/04/29 03:27:21;;;;;;;5.05;1.77;;;;;;;12.70;42.88;101650.92;1734656;81;20938;-80
2022/04/29 03:29:48;;;;;;;2.42;1.25;;;;;;;12.71;43.30;101655.72;1734584;81;20946;-80
2022/04/29 03:32:18;;;;;;;1.72;1.40;;;;;;;12.73;43.50;101657.81;1734948;81;21472;-81
2022/04/29 03:35:04;;;;;;;1.40;0.93;;;;;;;12.73;43.26;101657.34;1734555;82;20919;-81
2022/04/29 03:37:32;;;;;;;2.52;1.20;;;;;;;12.75;43.51;101655.95;1736090;80;21338;-79
2022/04/29 03:40:00;;;;;;;4.85;2.12;;;;;;;12.75;43.42;101652.84;1736378;82;20931;-81
2022/04/29 03:42:30;;;;;;;4.20;1.27;;;;;;;12.73;43.27;101648.59;1673678;85;20972;-79
2022/04/29 03:44:57;;;;;;;2.37;1.20;;;;;;;12.72;43.20;101644.28;1706566;83;20967;-80
2022/04/29 03:47:25;;;;;;;2.22;1.10;;;;;;;12.72;43.06;101642.96;1706503;83;20963;-80
2022/04/29 03:50:05;;;;;;;1.75;1.10;;;;;;;12.71;42.93;101644.72;1638925;84;21472;-79
2022/04/29 03:52:51;;;;;;;3.35;1.10;;;;;;;12.70;42.83;101648.30;1680977;84;20943;-79
2022/04/29 03:55:20;;;;;;;1.40;1.25;;;;;;;12.70;43.14;101654.88;1708308;83;20995;-79
2022/04/29 03:57:46;;;;;;;3.22;1.27;;;;;;;12.72;43.05;101662.70;1706774;84;20998;-80
2022/04/29 04:00:16;;;;;;;1.75;1.27;;;;;;;12.75;42.71;101666.48;1706702;84;20971;-81
2022/04/29 04:02:47;;;;;;;4.47;1.37;;;;;;;12.76;42.92;101666.41;1706562;83;20979;-80
2022/04/29 04:05:14;;;;;;;4.92;1.50;;;;;;;12.79;42.78;101671.50;1706551;84;21010;-80
2022/04/29 04:07:43;;;;;;;3.00;1.70;;;;;;;12.82;42.47;101677.91;1706559;83;20955;-79
2022/04/29 04:10:25;;;;;;;2.87;1.22;;;;;;;12.84;42.86;101678.68;1705247;84;20940;-79
2022/04/29 04:12:54;;;;;;;3.55;1.20;;;;;;;12.86;42.61;101680.77;1706520;84;21089;-80
2022/04/29 04:15:40;;;;;;;1.57;1.17;;;;;;;12.88;42.34;101680.70;1706622;83;20919;-79
2022/04/29 04:18:08;;;;;;;2.72;1.12;;;;;;;12.88;42.07;101670.64;1706549;84;21030;-80
2022/04/29 04:20:35;;;;;;;3.80;1.55;;;;;;;12.85;42.14;101672.50;1706621;83;21006;-79
2022/04/29 04:23:05;;;;;;;1.22;1.10;;;;;;;12.87;41.90;101668.45;1708417;82;20923;-79
2022/04/29 04:25:34;;;;;;;4.62;1.42;;;;;;;12.85;41.66;101671.19;1709231;81;20987;-80
2022/04/29 04:28:03;;;;;;;3.65;1.72;;;;;;;12.85;41.71;101675.61;1708601;81;20963;-81
2022/04/29 04:30:38;;;;;;;3.72;1.30;;;;;;;12.85;41.84;101675.61;1707270;83;20995;-80
2022/04/29 04:33:04;;;;;;;1.67;1.30;;;;;;;12.88;41.74;101678.54;1707131;83;20967;-80
2022/04/29 04:35:32;;;;;;;2.85;1.32;;;;;;;12.88;41.81;101683.80;1706803;83;20923;-79
2022/04/29 04:38:02;;;;;;;2.22;1.32;;;;;;;12.90;41.85;101688.52;1756218;80;21205;-77
2022/04/29 04:40:32;;;;;;;5.12;1.32;;;;;;;12.95;41.64;101689.12;1722494;82;20848;-80
2022/04/29 04:43:00;;;;;;;2.62;1.17;;;;;;;12.96;41.87;101690.37;1729391;82;20891;-81
2022/04/29 04:45:32;;;;;;;4.87;1.65;;;;;;;12.96;41.78;101685.10;1729486;82;20908;-80
2022/04/29 04:48:17;;;;;;;3.12;1.37;;;;;;;12.99;41.76;101691.98;1729444;82;20986;-80
2022/04/29 04:50:59;;;;;;;6.10;1.75;;;;;;;13.03;42.35;101691.73;1697763;83;20951;-81
2022/04/29 04:53:25;;;;;;;2.20;1.20;;;;;;;13.08;42.18;101695.91;1704570;83;20966;-79
2022/04/29 04:55:53;;;;;;;2.42;1.65;;;;;;;13.14;42.04;101687.66;1729224;82;21012;-82
2022/04/29 04:58:21;;;;;;;3.47;1.10;;;;;;;13.16;41.69;101687.99;1729144;82;21453;-79
2022/04/29 05:00:48;;;;;;;3.87;1.75;;;;;;;13.17;41.72;101692.31;1729478;82;20899;-81
2022/04/29 05:03:18;;;;;;;2.65;1.42;;;;;;;13.20;41.97;101692.61;1714319;82;20935;-80
2022/04/29 05:06:00;;;;;;;5.12;1.70;;;;;;;13.25;41.35;101695.83;1729213;81;20917;-80
2022/04/29 05:08:26;;;;;;;2.90;1.10;;;;;;;13.29;41.61;101699.20;1729494;83;20978;-81
2022/04/29 05:10:55;;;;;;;3.65;1.80;;;;;;;13.32;41.29;101703.84;1729221;81;20923;-80
2022/04/29 05:13:24;;;;;;;3.90;2.12;;;;;;;13.38;41.10;101709.23;1729347;81;21381;-80
2022/04/29 05:15:53;;;;;;;4.85;1.60;;;;;;;13.42;41.07;101705.03;1705356;83;20911;-81
2022/04/29 05:18:22;;;;;;;3.20;1.98;;;;;;;13.48;41.07;101703.86;1729455;81;21539;-82
2022/04/29 05:20:55;;;;;;;6.67;2.05;;;;;;;13.50;41.14;101703.31;1730308;81;20978;-81
2022/04/29 05:23:22;;;;;;;2.87;1.62;;;;;;;13.52;41.49;101708.03;1731088;82;20887;-81
2022/04/29 05:25:53;;;;;;;6.75;1.98;;;;;;;13.55;41.50;101707.01;1715554;83;20919;-81
2022/04/29 05:28:39;;;;;;;3.52;1.60;;;;;;;13.58;41.76;101706.35;1729277;81;20868;-82
2022/04/29 05:31:25;;;;;;;7.92;2.08;;;;;;;13.64;41.14;101708.66;1729354;82;20927;-81
2022/04/29 05:34:10;;;;;;;3.42;1.62;;;;;;;13.69;41.04;101703.12;1729258;82;20946;-80
2022/04/29 05:36:55;;;;;;;1.75;1.40;;;;;;;13.77;40.98;101701.39;1705905;83;20963;-80
2022/04/29 05:42:23;;;;;;;3.10;1.25;;;;;;;13.90;41.42;101712.95;1716841;83;21414;-82
2022/04/29 05:44:49;;;;;;;3.65;1.40;;;;;;;13.94;40.97;101718.88;1716818;83;20963;-81
2022/04/29 05:47:17;;;;;;;4.33;1.42;;;;;;;13.99;41.20;101716.38;1716844;83;20959;-81
2022/04/29 05:49:46;;;;;;;5.42;1.82;;;;;;;14.15;40.59;101720.31;1716789;83;21116;-82
2022/04/29 05:52:13;;;;;;;5.17;1.52;;;;;;;14.15;40.59;101720.31;1716927;83;20865;-81
2022/04/29 05:54:43;;;;;;;5.85;1.90;;;;;;;14.22;40.29;101722.13;1716962;81;20852;-81
2022/04/29 05:57:10;;;;;;;5.47;2.40;;;;;;;14.27;39.58;101718.30;1716940;83;20979;-81
2022/04/29 05:59:38;;;;;;;4.42;1.62;;;;;;;14.35;39.31;101719.63;1716780;83;21449;-81
2022/04/29 06:02:09;;;;;;;3.98;2.05;;;;;;;14.47;39.36;101717.13;1716771;83;20916;-81
2022/04/29 06:04:39;;;;;;;5.33;1.87;;;;;;;14.74;39.46;101715.16;1711817;82;21350;-82
2022/04/29 06:07:09;;;;;;;5.10;1.65;;;;;;;14.74;39.46;101715.16;1718787;83;21221;-82
2022/04/29 06:09:36;;;;;;;2.35;1.77;;;;;;;15.02;38.35;101724.03;1716935;83;21501;-84
2022/04/29 06:12:05;;;;;;;4.15;1.75;;;;;;;15.02;38.35;101724.03;1716879;83;20979;-84
2022/04/29 06:14:35;;;;;;;3.65;1.65;;;;;;;15.12;38.59;101722.06;1717538;83;20864;-81
2022/04/29 06:17:16;;;;;;;5.92;1.10;;;;;;;15.21;38.11;101725.92;1717764;81;20892;-82
2022/04/29 06:20:03;;;;;;;6.75;1.52;;;;;;;15.30;37.63;101729.80;1717146;83;21166;-81
2022/04/29 06:22:49;;;;;;;4.83;1.50;;;;;;;15.44;37.27;101727.61;1717039;81;20899;-81
2022/04/29 06:25:20;;;;;;;2.52;1.10;;;;;;;15.44;37.27;101727.61;1717178;83;21452;-83
2022/04/29 06:27:48;;;;;;;3.22;1.55;;;;;;;15.51;37.26;101728.43;1717333;83;20983;-82
2022/04/29 06:30:16;;;;;;;5.33;1.27;;;;;;;15.63;36.47;101727.28;1717543;81;21408;-82
2022/04/29 06:32:53;;;;;;;4.70;1.47;;;;;;;15.75;36.57;101721.25;1717509;83;20877;-81
2022/04/29 06:35:25;;;;;;;4.22;1.15;;;;;;;15.93;36.26;101720.05;1717254;83;20979;-83
2022/04/29 06:37:52;;;;;;;4.80;1.30;;;;;;;16.04;36.37;101718.03;1718850;81;20931;-85
2022/04/29 06:40:37;;;;;;;2.40;1.15;;;;;;;16.29;35.21;101713.77;1719951;82;20927;-83
2022/04/29 06:43:04;;;;;;;1.57;1.47;;;;;;;16.29;35.21;101713.77;1724473;82;20891;-82
2022/04/29 06:45:49;;;;;;;3.17;1.10;;;;;;;16.44;35.22;101718.52;1724181;82;21271;-83
2022/04/29 06:48:35;;;;;;;4.12;1.57;;;;;;;16.58;35.15;101721.95;1724150;82;20888;-82
2022/04/29 06:51:23;;;;;;;1.87;1.00;;;;;;;16.68;34.86;101720.83;1725331;82;20962;-82
2022/04/29 06:53:55;;;;;;;2.80;1.07;;;;;;;16.82;34.83;101717.75;1724447;81;21023;-84
2022/04/29 06:56:25;;;;;;;4.35;1.20;;;;;;;16.94;34.14;101723.51;1724087;81;21034;-84
2022/04/29 06:58:53;;;;;;;1.47;1.10;;;;;;;17.01;34.07;101715.98;1723602;82;21863;-83
2022/04/29 07:01:23;;;;;;;5.90;1.55;;;;;;;17.13;32.52;101719.11;1724478;82;20887;-83
2022/04/29 07:03:52;;;;;;;4.28;1.25;;;;;;;17.14;32.29;101724.31;1725259;82;20927;-82
2022/04/29 07:06:19;;;;;;;3.90;1.85;;;;;;;17.17;32.42;101719.27;1725299;82;20970;-82
2022/04/29 07:08:48;;;;;;;6.42;1.10;;;;;;;17.26;33.28;101723.08;1724349;82;20920;-82
2022/04/29 07:11:20;;;;;;;2.90;1.35;;;;;;;17.38;33.02;101720.87;1717383;82;21155;-82
2022/04/29 07:13:55;;;;;;;5.70;1.62;;;;;;;17.57;32.93;101727.05;1725027;81;20974;-83
2022/04/29 07:16:22;;;;;;;2.85;1.22;;;;;;;17.81;33.69;101719.13;1724483;82;20927;-83
2022/04/29 07:18:59;;;;;;;2.25;1.25;;;;;;;18.14;32.99;101729.09;1725784;81;20911;-82
2022/04/29 07:21:27;;;;;;;7.45;1.30;;;;;;;18.52;31.63;101725.82;1724651;82;20953;-85
2022/04/29 07:23:53;;;;;;;3.42;0.98;;;;;;;18.83;30.29;101723.89;1724751;83;21964;-84
2022/04/29 07:26:23;;;;;;;4.00;1.20;;;;;;;18.98;30.08;101726.30;1724197;82;20884;-82
2022/04/29 07:28:51;;;;;;;3.70;1.10;;;;;;;19.04;30.67;101729.34;1723636;81;20829;-84
2022/04/29 07:31:21;;;;;;;2.90;1.22;;;;;;;19.08;29.64;101729.11;1724456;82;21401;-83
2022/04/29 07:33:50;;;;;;;2.87;0.70;;;;;;;19.01;29.19;101728.25;1717577;81;20952;-82
2022/04/29 07:42:09;;;;;;;4.97;0.70;;;;;;;18.94;29.24;101727.05;1757194;80;20966;-84
2022/04/29 07:44:36;;;;;;;4.78;1.72;;;;;;;18.82;28.97;101728.82;1724371;83;20940;-83
2022/04/29 07:47:07;;;;;;;7.25;1.47;;;;;;;18.68;29.65;101718.39;1724101;82;20915;-84
2022/04/29 07:49:36;;;;;;;3.45;1.00;;;;;;;18.58;30.18;101721.37;1757101;80;21194;-81
2022/04/29 07:55:09;;;;;;;5.22;1.52;;;;;;;18.61;30.21;101711.37;1818206;79;22521;-82
2022/04/29 07:57:37;;;;;;;2.98;1.40;;;;;;;18.53;30.37;101715.09;1791235;80;21054;-83
2022/04/29 08:00:06;;;;;;;1.30;1.10;;;;;;;18.52;30.38;101716.06;1790764;80;21228;-82
2022/04/29 08:02:45;;;;;;;1.45;0.93;;;;;;;18.46;30.11;101717.85;1791103;80;20892;-81
2022/04/29 08:05:18;;;;;;;3.62;1.12;;;;;;;18.36;30.18;101714.19;1791135;80;20895;-82
2022/04/29 08:07:47;;;;;;;4.30;1.57;;;;;;;18.18;30.25;101715.93;1790892;80;20892;-83
2022/04/29 08:10:15;;;;;;;3.12;1.35;;;;;;;18.01;30.03;101721.19;1787895;80;20936;-82
2022/04/29 08:12:43;;;;;;;2.65;0.90;;;;;;;17.89;30.26;101714.11;1790769;80;21041;-84
2022/04/29 08:15:30;;;;;;;2.95;0.88;;;;;;;17.81;30.68;101716.47;1748942;80;20880;-82
2022/04/29 08:18:00;;;;;;;2.52;1.10;;;;;;;17.73;31.25;101720.98;1790428;80;20947;-80
2022/04/29 08:20:29;;;;;;;2.33;1.15;;;;;;;17.61;32.04;101720.08;1791632;80;20903;-82
2022/04/29 08:22:56;;;;;;;1.42;1.10;;;;;;;17.58;32.64;101718.95;1791965;80;20891;-81
2022/04/29 08:25:27;;;;;;;5.17;1.17;;;;;;;17.51;32.82;101716.39;1792320;80;21397;-82
2022/04/29 08:27:54;;;;;;;26.48;21.70;;;;;;;17.39;33.00;101720.77;1791718;80;20989;-82
2022/04/29 08:30:22;;;;;;;9.08;4.40;;;;;;;17.27;33.01;101716.33;1791566;80;20978;-81
2022/04/29 08:32:52;;;;;;;5.45;2.85;;;;;;;17.16;33.37;101721.08;1790362;80;20939;-82
2022/04/29 08:35:27;;;;;;;6.87;3.40;;;;;;;17.09;33.11;101714.49;1790097;80;20880;-82
2022/04/29 08:37:57;;;;;;;8.03;3.67;;;;;;;17.04;33.60;101710.00;1791311;80;20888;-81
2022/04/29 08:40:27;;;;;;;4.83;2.77;;;;;;;16.96;33.98;101713.20;1791035;80;20891;-81
2022/04/29 08:42:57;;;;;;;1.87;1.50;;;;;;;16.91;34.56;101713.13;1791787;80;21358;-82
2022/04/29 08:45:24;;;;;;;5.03;1.75;;;;;;;16.86;34.42;101717.43;1761162;80;20904;-83
2022/04/29 08:48:10;;;;;;;3.02;1.35;;;;;;;16.87;34.37;101715.14;1791596;80;20963;-82
2022/04/29 08:50:39;;;;;;;3.85;1.62;;;;;;;16.85;34.00;101711.77;1790555;80;21094;-81
2022/04/29 08:53:07;;;;;;;2.25;1.10;;;;;;;16.82;34.30;101715.09;1785879;80;20935;-82
2022/04/29 08:58:38;;;;;;;3.58;1.55;;;;;;;16.68;34.12;101713.38;1777642;80;20966;-82
2022/04/29 09:01:13;;;;;;;6.17;1.07;;;;;;;16.63;33.50;101712.36;1777621;80;20901;-80
2022/04/29 09:03:42;;;;;;;5.47;1.20;;;;;;;16.57;33.66;101711.45;1778607;80;21253;-82
2022/04/29 09:06:08;;;;;;;8.40;1.62;;;;;;;16.55;32.85;101711.54;1777849;80;20991;-82
2022/04/29 09:08:44;;;;;;;12.07;2.15;;;;;;;16.55;32.74;101715.52;1777239;80;20900;-82
2022/04/29 09:11:23;;;;;;;4.58;1.75;;;;;;;16.53;32.74;101717.90;1777478;80;20893;-80
2022/04/29 09:13:50;;;;;;;6.60;2.25;;;;;;;16.52;32.53;101713.56;1772612;80;20932;-82
2022/04/29 09:16:18;;;;;;;6.62;1.52;;;;;;;16.50;33.64;101711.02;1773984;80;21098;-82
2022/04/29 09:18:52;;;;;;;8.53;1.87;;;;;;;16.47;33.75;101709.03;1777708;80;20888;-81
2022/04/29 09:21:22;;;;;;;2.30;1.70;;;;;;;16.38;34.32;101698.59;1777713;80;21014;-81
2022/04/29 09:23:56;;;;;;;2.58;1.75;;;;;;;16.34;34.71;101695.31;1777560;80;20979;-81
2022/04/29 09:26:41;;;;;;;4.67;1.60;;;;;;;16.39;34.98;101692.36;1777352;80;20991;-82
2022/04/29 09:29:19;;;;;;;2.42;1.20;;;;;;;16.44;34.52;101685.42;1776020;80;21221;-80
2022/04/29 09:32:02;;;;;;;2.00;1.27;;;;;;;16.44;34.60;101689.40;1757343;80;20995;-82
2022/04/29 09:34:53;;;;;;;2.15;1.22;;;;;;;16.40;34.15;101690.06;1772053;80;20928;-81
2022/04/29 09:37:26;;;;;;;1.75;1.00;;;;;;;16.36;33.98;101697.39;1775851;80;21323;-81
2022/04/29 09:40:00;;;;;;;1.67;0.98;;;;;;;16.31;33.83;101691.53;1775831;80;20889;-82
2022/04/29 09:42:41;;;;;;;2.45;1.62;;;;;;;16.30;33.93;101692.98;1775684;80;21150;-83
2022/04/29 09:45:22;;;;;;;4.83;2.05;;;;;;;16.30;33.52;101698.27;1776772;80;21014;-80
2022/04/29 09:47:58;;;;;;;2.10;1.30;;;;;;;16.31;34.22;101698.63;1776280;80;20895;-81
2022/04/29 09:50:52;;;;;;;2.15;1.80;;;;;;;16.31;34.39;101691.53;1775924;80;20857;-82
2022/04/29 09:53:23;;;;;;;6.97;1.37;;;;;;;16.28;34.26;101686.94;1776157;80;21512;-81
2022/04/29 09:56:11;;;;;;;4.75;1.32;;;;;;;16.28;34.26;101686.94;1775814;80;21623;-82
2022/04/29 09:58:37;;;;;;;4.45;1.30;;;;;;;16.28;34.52;101689.11;1775945;80;20920;-82
2022/04/29 10:01:08;;;;;;;7.50;1.15;;;;;;;16.28;34.76;101692.23;1775465;80;20892;-82
2022/04/29 10:03:35;;;;;;;4.15;1.00;;;;;;;16.25;34.97;101689.32;1775883;80;20837;-83
2022/04/29 10:06:02;;;;;;;5.00;1.20;;;;;;;16.26;34.98;101694.13;1776003;80;20932;-83
2022/04/29 10:08:31;;;;;;;4.55;1.22;;;;;;;16.24;35.29;101693.38;1775884;80;21259;-83
2022/04/29 10:10:59;;;;;;;1.55;1.22;;;;;;;16.22;34.90;101696.61;1775875;80;21508;-82
2022/04/29 10:13:26;;;;;;;1.87;1.10;;;;;;;16.25;34.53;101696.39;1775655;80;20943;-84
2022/04/29 10:15:56;;;;;;;4.67;1.45;;;;;;;16.27;34.45;101695.33;1770412;80;20999;-81
2022/04/29 10:21:46;;;;;;;5.87;1.45;;;;;;;16.29;34.42;101696.08;1773772;80;21254;-82
2022/04/29 10:24:13;;;;;;;6.03;1.30;;;;;;;16.34;34.56;101698.41;1776755;80;20892;-82
2022/04/29 10:26:40;;;;;;;2.27;1.05;;;;;;;16.37;34.26;101703.52;1776207;80;20896;-82
2022/04/29 10:29:06;;;;;;;5.03;2.02;;;;;;;16.33;34.33;101701.55;1777104;80;20940;-80
2022/04/29 10:31:34;;;;;;;2.72;1.65;;;;;;;16.34;34.71;101700.61;1745484;82;21405;-82
2022/04/29 10:34:29;;;;;;;4.45;1.40;;;;;;;16.34;35.15;101701.06;1745415;82;21129;-80
2022/04/29 10:36:58;;;;;;;2.67;1.50;;;;;;;16.30;34.76;101704.41;1745138;82;28578;-82
2022/04/29 10:39:25;;;;;;;2.92;1.55;;;;;;;16.25;34.81;101700.36;1745161;82;20955;-81
2022/04/29 10:42:03;;;;;;;3.87;1.82;;;;;;;16.27;34.86;101709.89;1745876;82;20979;-81
2022/04/29 10:44:31;;;;;;;5.55;1.77;;;;;;;16.27;34.86;101709.89;1745459;82;20995;-83
2022/04/29 10:47:25;;;;;;;4.20;1.77;;;;;;;16.31;34.63;101707.41;1749826;80;21946;-82
2022/04/29 10:50:36;;;;;;;2.45;1.95;;;;;;;16.36;34.80;101703.13;1730420;80;20940;-82
2022/04/29 10:53:22;;;;;;;4.92;1.65;;;;;;;16.46;34.99;101707.36;1747963;82;20998;-85
2022/04/29 10:55:54;;;;;;;3.08;1.98;;;;;;;16.49;35.06;101698.70;1732646;82;20952;-82
2022/04/29 10:58:25;;;;;;;5.00;3.00;;;;;;;16.51;35.36;101709.20;1688066;85;20896;-82
2022/04/29 11:01:27;;;;;;;8.68;2.65;;;;;;;16.49;35.71;101708.45;1640210;85;21205;-81
2022/04/29 11:03:54;;;;;;;4.87;3.92;;;;;;;16.49;36.61;101701.36;1682025;85;20882;-81
2022/04/29 11:06:46;;;;;;;4.58;2.92;;;;;;;16.54;36.28;101698.39;1664398;86;20904;-82
2022/04/29 11:09:38;;;;;;;5.03;3.77;;;;;;;16.54;36.09;101689.12;1681503;85;20946;-84
2022/04/29 11:12:10;;;;;;;5.15;3.10;;;;;;;16.48;36.17;101690.41;1662999;86;20948;-82
2022/04/29 11:15:20;;;;;;;21.30;13.55;;;;;;;16.48;36.17;101690.41;1634153;85;22179;-82
2022/04/29 11:18:26;;;;;;;13.38;10.48;;;;;;;16.49;36.61;101681.50;1663498;86;21426;-82
2022/04/29 11:20:56;;;;;;;22.52;15.68;;;;;;;16.52;36.79;101679.98;1684187;85;20984;-83
2022/04/29 11:26:17;;;;;;;7.83;3.92;;;;;;;16.51;36.15;101676.95;1684025;85;20888;-84
2022/04/29 11:28:57;;;;;;;7.10;3.58;;;;;;;16.56;36.83;101674.86;1718158;83;21054;-83
2022/04/29 11:31:35;;;;;;;11.10;5.20;;;;;;;16.57;36.36;101669.08;1716387;83;20984;-83
2022/04/29 11:34:13;;;;;;;9.53;3.37;;;;;;;16.57;36.28;101666.42;1718271;82;20940;-82
2022/04/29 11:36:41;;;;;;;7.12;3.72;;;;;;;16.57;36.09;101667.27;1717589;83;20900;-84
2022/04/29 11:39:11;;;;;;;8.93;3.98;;;;;;;16.50;36.05;101662.02;1723743;83;20908;-82
2022/04/29 11:42:01;;;;;;;10.03;9.03;;;;;;;16.47;35.90;101659.57;1724248;83;21246;-83
2022/04/29 11:44:42;;;;;;;8.55;7.25;;;;;;;16.42;35.74;101656.87;1724669;83;21414;-84
2022/04/29 11:47:06;;;;;;;4.00;3.50;;;;;;;16.40;36.09;101656.97;1688946;85;20972;-84
2022/04/29 11:49:34;;;;;;;5.12;3.95;;;;;;;16.37;35.89;101659.84;1707645;83;20955;-83
2022/04/29 11:52:24;;;;;;;6.58;3.77;;;;;;;16.34;35.89;101648.99;1723951;83;21007;-82
2022/04/29 11:55:05;;;;;;;4.83;3.37;;;;;;;16.33;36.46;101648.59;1675983;84;21253;-82
2022/04/29 11:57:44;;;;;;;5.33;4.35;;;;;;;16.33;35.85;101644.63;1678760;85;21025;-83
2022/04/29 12:00:30;;;;;;;6.17;3.37;;;;;;;16.29;35.62;101628.58;1676728;85;20948;-84
2022/04/29 12:02:58;;;;;;;4.45;2.52;;;;;;;16.24;35.39;101628.05;1679042;85;20922;-83
2022/04/29 12:05:28;;;;;;;11.18;3.65;;;;;;;16.20;35.40;101616.45;1679697;85;20961;-84
2022/04/29 12:08:01;;;;;;;5.00;2.80;;;;;;;16.21;35.24;101616.81;1679634;85;21215;-78
2022/04/29 12:10:47;;;;;;;4.03;2.10;;;;;;;16.22;35.34;101623.34;1678230;85;21030;-81